Time;durP1;ratioP1;P1;durP2;ratioP2;P2;SDS_P1;SDS_P2;PMS_P1;PMS_P2;Temp;Humidity;BMP_temperature;BMP_pressure;BME280_temperature;BME280_humidity;BME280_pressure;Samples;Min_cycle;Max_cycle;Signal;HPM_P1;HPM_P2
2021/07/16 00:00:17;;;;;;;;;;;20.50;87.80;;;;;;5010780;28;20218;-73
2021/07/16 00:02:44;;;;;;;;;;;20.40;87.70;;;;;;5009812;28;20002;-73
2021/07/16 00:05:13;;;;;;;;;;;20.40;87.80;;;;;;5010921;28;19962;-74
2021/07/16 00:07:41;;;;;;;17.55;6.18;;;20.40;88.00;;;;;;5012317;28;20387;-75
2021/07/16 00:10:11;;;;;;;18.02;5.95;;;20.40;88.70;;;;;;5007896;28;20586;-72
2021/07/16 00:12:38;;;;;;;18.25;5.80;;;20.40;87.70;;;;;;5011326;28;20200;-73
2021/07/16 00:15:06;;;;;;;27.08;5.80;;;20.30;87.70;;;;;;5007333;28;20220;-74
2021/07/16 00:17:33;;;;;;;20.33;5.35;;;20.30;87.60;;;;;;5012310;28;20545;-74
2021/07/16 00:20:00;;;;;;;16.35;5.57;;;20.30;87.50;;;;;;5008753;28;20196;-71
2021/07/16 00:22:29;;;;;;;22.37;6.03;;;20.30;87.40;;;;;;5011026;28;20208;-73
2021/07/16 00:24:55;;;;;;;15.57;5.70;;;20.20;87.40;;;;;;5009341;28;20183;-74
2021/07/16 00:27:22;;;;;;;18.33;5.60;;;20.20;87.30;;;;;;5010996;28;20200;-73
2021/07/16 00:29:49;;;;;;;22.23;5.97;;;20.20;87.20;;;;;;4995115;28;20216;-71
2021/07/16 00:32:16;;;;;;;17.23;5.53;;;20.10;87.00;;;;;;5008104;28;20247;-74
2021/07/16 00:34:43;;;;;;;17.92;5.85;;;20.10;87.00;;;;;;5009677;28;20192;-75
2021/07/16 00:37:10;;;;;;;19.48;5.53;;;20.10;86.90;;;;;;5006889;28;20203;-71
2021/07/16 00:39:39;;;;;;;14.20;4.97;;;20.00;87.00;;;;;;5009267;28;20731;-70
2021/07/16 00:42:07;;;;;;;18.40;5.22;;;20.00;86.90;;;;;;5008723;28;20196;-74
2021/07/16 00:44:34;;;;;;;12.73;5.00;;;20.00;86.90;;;;;;5009533;28;20246;-74
2021/07/16 00:47:01;;;;;;;21.63;4.80;;;20.00;86.80;;;;;;5012544;28;20577;-74
2021/07/16 00:49:28;;;;;;;18.55;5.13;;;20.00;86.80;;;;;;5007307;28;20266;-72
2021/07/16 00:51:55;;;;;;;22.67;5.47;;;19.90;86.60;;;;;;5012539;28;20299;-72
2021/07/16 00:54:22;;;;;;;15.65;5.47;;;20.00;86.70;;;;;;5006403;28;20201;-74
2021/07/16 00:56:51;;;;;;;17.73;4.97;;;19.90;86.60;;;;;;5003096;28;20223;-71
2021/07/16 00:59:18;;;;;;;19.23;4.82;;;19.90;86.40;;;;;;5010082;28;20695;-72
2021/07/16 01:01:47;;;;;;;15.00;4.65;;;19.80;86.20;;;;;;5007976;28;20615;-70
2021/07/16 01:04:14;;;;;;;17.15;4.68;;;19.90;86.10;;;;;;5007713;28;20215;-71
2021/07/16 01:06:41;;;;;;;18.88;4.80;;;19.80;86.00;;;;;;5011044;28;20607;-71
2021/07/16 01:09:08;;;;;;;23.88;4.63;;;19.80;85.90;;;;;;5011265;28;20208;-73
2021/07/16 01:11:36;;;;;;;16.90;4.57;;;19.80;86.60;;;;;;5010353;28;20227;-73
2021/07/16 01:14:04;;;;;;;17.70;4.35;;;19.80;85.70;;;;;;5009698;28;20208;-70
2021/07/16 01:16:31;;;;;;;18.58;4.57;;;19.80;85.70;;;;;;5010251;28;20211;-71
2021/07/16 01:18:59;;;;;;;18.08;4.13;;;19.80;85.50;;;;;;5008424;28;20266;-71
2021/07/16 01:21:28;;;;;;;17.63;4.18;;;19.70;85.30;;;;;;5012005;28;20604;-72
2021/07/16 01:23:57;;;;;;;19.50;4.07;;;19.70;85.20;;;;;;5009725;28;20274;-73
2021/07/16 01:26:24;;;;;;;18.17;4.68;;;19.70;85.20;;;;;;5008747;28;20209;-72
2021/07/16 01:28:52;;;;;;;18.17;4.40;;;19.60;85.10;;;;;;5009163;28;20269;-71
2021/07/16 01:31:19;;;;;;;21.90;5.20;;;19.70;85.00;;;;;;5011575;28;20542;-74
2021/07/16 01:33:46;;;;;;;21.42;4.53;;;19.60;85.00;;;;;;5004515;28;20241;-70
2021/07/16 01:36:13;;;;;;;15.05;4.10;;;19.60;85.00;;;;;;5012125;28;20255;-72
2021/07/16 01:38:40;;;;;;;21.10;4.40;;;19.60;85.10;;;;;;5010896;28;20684;-72
2021/07/16 01:41:08;;;;;;;22.83;4.32;;;19.60;85.10;;;;;;4996724;28;20660;-72
2021/07/16 01:43:35;;;;;;;22.10;4.35;;;19.60;85.10;;;;;;5013980;28;20200;-72
2021/07/16 01:46:02;;;;;;;19.55;4.18;;;19.60;85.10;;;;;;5013402;28;20258;-74
2021/07/16 01:48:30;;;;;;;21.02;4.18;;;19.60;85.10;;;;;;5012540;28;20685;-74
2021/07/16 01:50:57;;;;;;;27.45;4.75;;;19.60;85.10;;;;;;5017583;28;20319;-72
2021/07/16 01:53:23;;;;;;;22.23;4.30;;;19.60;85.20;;;;;;5009807;28;20213;-71
2021/07/16 01:55:50;;;;;;;17.13;4.10;;;19.60;85.30;;;;;;5015080;28;20200;-73
2021/07/16 01:58:19;;;;;;;21.30;4.57;;;19.60;85.40;;;;;;5018084;28;20209;-74
2021/07/16 02:00:47;;;;;;;21.35;5.22;;;19.60;85.50;;;;;;5011145;28;20736;-74
2021/07/16 02:03:16;;;;;;;13.60;4.20;;;19.60;85.60;;;;;;5014586;28;20208;-71
2021/07/16 02:05:44;;;;;;;13.45;4.03;;;19.60;85.80;;;;;;5013787;28;20677;-74
2021/07/16 02:08:14;;;;;;;22.98;4.60;;;19.60;85.90;;;;;;4999110;28;20212;-73
2021/07/16 02:10:42;;;;;;;18.85;4.63;;;19.60;86.00;;;;;;5011290;28;20217;-72
2021/07/16 02:13:09;;;;;;;22.23;4.18;;;19.60;86.10;;;;;;5016432;28;20199;-74
2021/07/16 02:15:38;;;;;;;19.45;4.82;;;19.60;86.00;;;;;;5012411;28;20204;-73
2021/07/16 02:18:06;;;;;;;16.88;4.15;;;19.60;86.00;;;;;;5012099;28;20193;-72
2021/07/16 02:20:34;;;;;;;17.75;4.55;;;19.60;86.00;;;;;;5008013;28;20559;-74
2021/07/16 02:23:04;;;;;;;24.52;4.50;;;19.60;85.90;;;;;;5017287;28;20216;-74
2021/07/16 02:25:31;;;;;;;19.83;4.55;;;19.60;86.00;;;;;;5013519;28;20205;-73
2021/07/16 02:28:01;;;;;;;22.92;4.43;;;19.60;86.10;;;;;;5019559;28;20640;-74
2021/07/16 02:30:29;;;;;;;21.65;4.88;;;19.60;86.20;;;;;;4991954;28;20271;-75
2021/07/16 02:32:59;;;;;;;22.30;4.68;;;19.60;86.20;;;;;;5015374;28;20264;-74
2021/07/16 02:35:27;;;;;;;23.20;4.22;;;19.60;87.00;;;;;;4996354;28;20665;-73
2021/07/16 02:37:54;;;;;;;18.67;3.92;;;19.60;86.20;;;;;;5015007;28;20327;-75
2021/07/16 02:40:21;;;;;;;19.95;3.97;;;19.50;86.10;;;;;;5017697;28;20203;-73
2021/07/16 02:42:48;;;;;;;20.33;4.15;;;19.50;86.10;;;;;;5010649;28;20679;-76
2021/07/16 02:45:17;;;;;;;19.20;4.00;;;19.50;86.10;;;;;;5015890;28;21002;-74
2021/07/16 02:47:44;;;;;;;19.70;4.07;;;19.50;86.10;;;;;;5016198;28;20209;-74
2021/07/16 02:50:14;;;;;;;17.17;4.47;;;19.50;86.00;;;;;;5015259;28;20197;-72
2021/07/16 02:52:42;;;;;;;21.02;3.90;;;19.50;86.10;;;;;;5003202;28;20215;-72
2021/07/16 02:55:11;;;;;;;22.90;4.38;;;19.40;86.00;;;;;;5013274;28;20259;-72
2021/07/16 02:57:38;;;;;;;21.00;3.80;;;19.40;86.00;;;;;;4998595;28;20660;-71
2021/07/16 03:00:10;;;;;;;15.45;3.90;;;19.40;86.10;;;;;;5013956;28;20222;-72
2021/07/16 03:02:41;;;;;;;22.48;4.45;;;19.40;86.10;;;;;;5012967;28;20661;-72
2021/07/16 03:05:08;;;;;;;25.83;3.95;;;19.40;86.20;;;;;;5010904;28;20210;-73
2021/07/16 03:07:37;;;;;;;18.80;4.25;;;19.40;86.30;;;;;;5012216;28;20208;-74
2021/07/16 03:10:06;;;;;;;20.65;3.85;;;19.40;86.30;;;;;;5009830;28;20302;-73
2021/07/16 03:12:33;;;;;;;19.33;3.58;;;19.40;86.30;;;;;;5012706;28;20217;-70
2021/07/16 03:15:00;;;;;;;26.13;4.35;;;19.40;86.20;;;;;;5009780;28;20302;-73
2021/07/16 03:17:27;;;;;;;28.80;4.15;;;19.40;86.20;;;;;;5013662;28;20202;-72
2021/07/16 03:19:54;;;;;;;21.23;4.15;;;19.30;86.10;;;;;;4999989;28;20212;-73
2021/07/16 03:22:21;;;;;;;14.90;3.83;;;19.40;86.30;;;;;;4999140;28;20208;-75
2021/07/16 03:24:49;;;;;;;22.13;4.10;;;19.30;86.40;;;;;;5010547;28;20212;-72
2021/07/16 03:27:16;;;;;;;23.98;4.05;;;19.40;86.50;;;;;;5012028;28;20287;-73
2021/07/16 03:29:44;;;;;;;19.27;4.25;;;19.30;86.60;;;;;;5012176;28;20197;-73
2021/07/16 03:32:11;;;;;;;20.35;4.57;;;19.30;86.70;;;;;;5009895;28;20232;-73
2021/07/16 03:34:38;;;;;;;23.33;4.50;;;19.30;86.80;;;;;;4993424;28;20215;-73
2021/07/16 03:37:05;;;;;;;24.50;4.22;;;19.30;86.90;;;;;;5013200;28;20211;-74
2021/07/16 03:39:32;;;;;;;22.15;4.38;;;19.30;87.10;;;;;;5010227;28;20589;-73
2021/07/16 03:42:02;;;;;;;30.10;4.90;;;19.30;87.20;;;;;;5013425;28;20562;-72
2021/07/16 03:44:30;;;;;;;27.52;4.70;;;19.20;87.30;;;;;;5011269;28;20657;-72
2021/07/16 03:46:58;;;;;;;35.20;5.03;;;19.30;87.40;;;;;;5000835;28;20212;-76
2021/07/16 03:49:26;;;;;;;20.83;4.00;;;19.20;87.40;;;;;;5010262;28;20231;-74
2021/07/16 03:51:53;;;;;;;24.88;3.70;;;19.20;87.50;;;;;;5011847;28;20301;-73
2021/07/16 03:54:20;;;;;;;25.92;4.63;;;19.20;87.60;;;;;;5007133;28;20669;-74
2021/07/16 03:56:48;;;;;;;29.85;4.38;;;19.20;87.70;;;;;;5000215;28;20204;-75
2021/07/16 03:59:16;;;;;;;21.17;3.55;;;19.20;87.80;;;;;;5008260;28;20291;-76
2021/07/16 04:01:47;;;;;;;19.98;3.70;;;19.20;88.00;;;;;;5005695;28;20200;-73
2021/07/16 04:04:14;;;;;;;24.73;4.75;;;19.20;88.10;;;;;;5012734;28;20660;-75
2021/07/16 04:06:40;;;;;;;24.02;4.22;;;19.10;88.20;;;;;;5012082;28;20223;-75
2021/07/16 04:09:26;;;;;;;20.40;4.07;;;19.10;88.40;;;;;;5011108;28;20208;-73
2021/07/16 04:12:04;;;;;;;27.40;4.30;;;19.10;88.50;;;;;;5010983;28;20650;-76
2021/07/16 04:14:32;;;;;;;18.55;4.28;;;19.10;88.80;;;;;;5009654;28;20625;-74
2021/07/16 04:16:59;;;;;;;23.40;3.97;;;19.10;89.00;;;;;;5010015;28;20204;-76
2021/07/16 04:19:26;;;;;;;22.70;4.07;;;19.10;89.10;;;;;;5010256;28;20200;-77
2021/07/16 04:21:52;;;;;;;22.92;3.80;;;19.10;89.20;;;;;;5010475;28;20209;-74
2021/07/16 04:24:19;;;;;;;22.60;4.40;;;19.10;89.30;;;;;;5009673;28;20216;-73
2021/07/16 04:26:46;;;;;;;27.05;4.57;;;19.10;89.30;;;;;;5008482;28;20205;-73
2021/07/16 04:29:13;;;;;;;23.65;4.25;;;19.10;89.40;;;;;;5007413;28;20200;-72
2021/07/16 04:31:41;;;;;;;30.95;4.80;;;19.10;89.60;;;;;;5011485;28;20281;-71
2021/07/16 04:34:08;;;;;;;24.02;4.50;;;19.10;89.70;;;;;;5011630;28;20779;-73
2021/07/16 04:36:35;;;;;;;18.75;3.85;;;19.10;89.90;;;;;;5009422;28;20610;-74
2021/07/16 04:39:01;;;;;;;20.48;4.40;;;19.10;90.00;;;;;;4992066;28;20267;-74
2021/07/16 04:41:28;;;;;;;25.80;4.05;;;19.10;90.00;;;;;;5011664;28;20616;-75
2021/07/16 04:43:56;;;;;;;20.08;4.18;;;19.10;90.10;;;;;;5008449;28;20722;-77
2021/07/16 04:46:23;;;;;;;31.83;4.80;;;19.10;90.10;;;;;;5009493;28;20247;-76
2021/07/16 04:48:55;;;;;;;20.90;3.88;;;19.10;90.20;;;;;;5008690;28;20212;-72
2021/07/16 04:51:26;;;;;;;19.35;3.88;;;19.10;90.20;;;;;;5009210;28;20208;-74
2021/07/16 04:53:53;;;;;;;27.40;4.53;;;19.10;90.30;;;;;;5005157;28;20208;-74
2021/07/16 04:56:20;;;;;;;22.23;4.25;;;19.10;90.30;;;;;;5010938;28;20213;-72
2021/07/16 04:58:47;;;;;;;22.92;4.28;;;19.10;90.40;;;;;;4989771;28;20314;-75
2021/07/16 05:01:14;;;;;;;31.98;4.22;;;19.10;90.50;;;;;;5009938;28;20205;-73
2021/07/16 05:03:41;;;;;;;23.65;3.97;;;19.10;90.60;;;;;;5009120;28;20205;-71
2021/07/16 05:06:11;;;;;;;27.30;4.38;;;19.10;90.60;;;;;;5010301;28;20204;-74
2021/07/16 05:08:38;;;;;;;35.05;4.35;;;19.10;90.60;;;;;;5011265;28;20251;-73
2021/07/16 05:11:05;;;;;;;17.95;3.92;;;19.10;90.60;;;;;;5011828;28;20576;-73
2021/07/16 05:13:32;;;;;;;24.63;4.75;;;19.10;90.60;;;;;;5012523;28;20735;-75
2021/07/16 05:15:59;;;;;;;28.98;4.18;;;19.10;90.70;;;;;;5014829;28;20220;-76
2021/07/16 05:18:26;;;;;;;24.20;4.60;;;19.10;90.70;;;;;;5014160;28;20634;-71
2021/07/16 05:20:53;;;;;;;21.40;4.10;;;19.10;90.80;;;;;;5016455;28;20208;-73
2021/07/16 05:23:21;;;;;;;22.77;4.68;;;19.10;90.80;;;;;;5012282;28;20248;-70
2021/07/16 05:25:48;;;;;;;18.67;4.10;;;19.10;90.80;;;;;;5013653;28;20205;-73
2021/07/16 05:28:15;;;;;;;24.33;4.22;;;19.10;90.80;;;;;;5010858;28;20200;-74
2021/07/16 05:30:42;;;;;;;23.33;4.40;;;19.20;90.90;;;;;;5009132;28;20218;-73
2021/07/16 05:33:09;;;;;;;20.10;4.35;;;19.20;90.90;;;;;;5012647;28;20247;-74
2021/07/16 05:35:35;;;;;;;23.40;4.18;;;19.20;90.80;;;;;;5012826;28;20199;-71
2021/07/16 05:38:03;;;;;;;22.65;4.35;;;19.20;90.90;;;;;;5010551;28;20196;-74
2021/07/16 05:40:31;;;;;;;22.42;4.63;;;19.20;90.80;;;;;;5010483;28;20318;-72
2021/07/16 05:42:58;;;;;;;24.92;4.82;;;19.20;90.90;;;;;;5011770;28;20216;-73
2021/07/16 05:45:26;;;;;;;28.42;4.95;;;19.20;90.90;;;;;;5012885;28;20564;-71
2021/07/16 05:47:55;;;;;;;23.38;5.22;;;19.20;90.90;;;;;;5014053;28;20282;-73
2021/07/16 05:50:22;;;;;;;32.30;4.95;;;19.20;90.90;;;;;;5011534;28;20288;-72
2021/07/16 05:52:52;;;;;;;29.35;4.22;;;19.30;91.00;;;;;;5010524;28;20286;-74
2021/07/16 05:55:19;;;;;;;24.58;4.30;;;19.30;91.10;;;;;;5010223;28;20209;-71
2021/07/16 05:57:48;;;;;;;35.72;5.53;;;19.30;91.10;;;;;;5003839;28;20223;-76
2021/07/16 06:00:16;;;;;;;22.88;4.47;;;19.30;91.10;;;;;;5011810;28;20200;-71
2021/07/16 06:02:43;;;;;;;29.00;4.45;;;19.30;91.10;;;;;;5012530;28;20196;-73
2021/07/16 06:05:11;;;;;;;24.35;4.22;;;19.30;91.10;;;;;;5012460;28;20665;-74
2021/07/16 06:07:38;;;;;;;26.33;4.43;;;19.40;91.10;;;;;;5012219;28;20255;-73
2021/07/16 06:10:06;;;;;;;28.67;4.30;;;19.40;91.10;;;;;;5012567;28;20204;-74
2021/07/16 06:12:35;;;;;;;22.33;4.72;;;19.40;91.10;;;;;;5012838;28;20217;-73
2021/07/16 06:15:05;;;;;;;28.77;4.82;;;19.40;91.10;;;;;;5011177;28;20200;-69
2021/07/16 06:17:32;;;;;;;30.42;5.05;;;19.40;91.20;;;;;;5013166;28;20204;-69
2021/07/16 06:19:59;;;;;;;26.90;4.80;;;19.40;91.20;;;;;;5013199;28;20335;-70
2021/07/16 06:22:26;;;;;;;23.05;5.00;;;19.40;91.20;;;;;;5012971;28;20197;-69
2021/07/16 06:24:54;;;;;;;22.38;4.60;;;19.50;91.30;;;;;;5008623;28;20213;-70
2021/07/16 06:27:21;;;;;;;29.50;4.63;;;19.50;91.30;;;;;;5012038;28;20220;-68
2021/07/16 06:29:47;;;;;;;29.20;4.70;;;19.50;91.20;;;;;;5010347;28;20205;-71
2021/07/16 06:32:15;;;;;;;26.52;4.43;;;19.50;91.10;;;;;;5011562;28;20708;-68
2021/07/16 06:34:43;;;;;;;20.92;4.70;;;19.50;91.00;;;;;;5008709;28;20209;-68
2021/07/16 06:37:10;;;;;;;25.05;4.55;;;19.50;90.90;;;;;;5014088;28;20274;-68
2021/07/16 06:39:37;;;;;;;19.85;4.22;;;19.50;90.90;;;;;;5010666;28;20207;-68
2021/07/16 06:42:05;;;;;;;25.65;4.80;;;19.50;90.80;;;;;;5013337;28;20224;-68
2021/07/16 06:44:33;;;;;;;22.33;4.20;;;19.50;90.70;;;;;;5011306;28;20201;-67
2021/07/16 06:47:00;;;;;;;24.67;4.70;;;19.60;90.70;;;;;;5013871;28;20610;-68
2021/07/16 06:49:28;;;;;;;24.13;4.70;;;19.60;90.70;;;;;;5010115;28;20201;-67
2021/07/16 06:51:55;;;;;;;24.98;4.50;;;19.60;90.70;;;;;;5007408;28;20319;-67
2021/07/16 06:54:22;;;;;;;27.23;4.70;;;19.60;90.70;;;;;;5008989;28;20203;-67
2021/07/16 06:56:49;;;;;;;23.45;4.75;;;19.70;90.70;;;;;;5013180;28;20215;-67
2021/07/16 06:59:15;;;;;;;24.27;5.00;;;19.70;90.70;;;;;;5010959;28;20218;-68
2021/07/16 07:01:42;;;;;;;27.10;5.07;;;19.70;90.70;;;;;;5013324;28;20219;-69
2021/07/16 07:04:09;;;;;;;17.33;4.55;;;19.70;90.70;;;;;;5010843;28;20197;-70
2021/07/16 07:06:38;;;;;;;25.70;4.93;;;19.80;90.60;;;;;;5010478;28;20208;-72
2021/07/16 07:09:05;;;;;;;22.17;5.20;;;19.80;90.40;;;;;;5011121;28;20607;-72
2021/07/16 07:11:32;;;;;;;28.45;5.15;;;19.80;90.30;;;;;;5010138;28;20207;-75
2021/07/16 07:13:59;;;;;;;18.20;4.35;;;19.80;90.20;;;;;;5000982;28;20212;-75
2021/07/16 07:16:25;;;;;;;22.25;4.90;;;19.80;90.10;;;;;;5011999;28;20200;-73
2021/07/16 07:18:52;;;;;;;21.17;4.35;;;19.80;90.10;;;;;;5012119;28;20259;-72
2021/07/16 07:21:19;;;;;;;21.02;4.78;;;19.80;90.00;;;;;;5012384;28;20203;-71
2021/07/16 07:23:47;;;;;;;27.92;4.50;;;19.80;90.00;;;;;;5009389;28;20209;-73
2021/07/16 07:26:14;;;;;;;21.63;4.78;;;19.90;89.90;;;;;;5010509;28;20259;-75
2021/07/16 07:28:41;;;;;;;20.75;5.15;;;19.90;89.80;;;;;;5009902;28;20212;-72
2021/07/16 07:31:08;;;;;;;21.48;4.40;;;19.90;89.70;;;;;;5011090;28;21022;-71
2021/07/16 07:33:34;;;;;;;23.42;4.82;;;20.00;89.50;;;;;;5012479;28;20224;-72
2021/07/16 07:36:01;;;;;;;19.77;4.85;;;20.00;89.30;;;;;;5011906;28;20266;-72
2021/07/16 07:38:31;;;;;;;22.05;4.40;;;20.00;89.20;;;;;;4992422;28;20200;-71
2021/07/16 07:41:00;;;;;;;25.75;4.85;;;20.10;89.00;;;;;;5012417;28;20633;-74
2021/07/16 07:43:27;;;;;;;22.42;4.22;;;20.10;88.80;;;;;;4994390;28;20207;-73
2021/07/16 07:45:54;;;;;;;26.25;4.88;;;20.10;88.50;;;;;;5012100;28;20522;-73
2021/07/16 07:48:21;;;;;;;25.67;4.68;;;20.10;88.40;;;;;;5012672;28;20224;-72
2021/07/16 07:50:48;;;;;;;26.35;5.18;;;20.10;88.50;;;;;;5011319;28;20230;-74
2021/07/16 07:53:15;;;;;;;29.70;4.70;;;20.20;88.80;;;;;;5006418;28;20634;-71
2021/07/16 07:55:42;;;;;;;22.58;4.78;;;20.20;89.00;;;;;;5009113;28;20204;-73
2021/07/16 07:58:11;;;;;;;23.73;5.03;;;20.30;89.20;;;;;;4994403;28;20576;-72
2021/07/16 08:00:38;;;;;;;29.13;5.00;;;20.30;89.30;;;;;;5010401;28;20200;-73
2021/07/16 08:03:05;;;;;;;33.17;4.93;;;20.40;89.30;;;;;;5011804;28;20242;-73
2021/07/16 08:05:32;;;;;;;21.73;4.45;;;20.40;89.20;;;;;;4995506;28;20208;-75
2021/07/16 08:07:58;;;;;;;29.20;5.03;;;20.50;89.10;;;;;;5011112;28;20533;-74
2021/07/16 08:10:25;;;;;;;26.15;4.68;;;20.50;89.20;;;;;;5008537;28;20200;-73
2021/07/16 08:12:52;;;;;;;28.38;4.88;;;20.50;89.00;;;;;;5011011;28;20762;-73
2021/07/16 08:15:21;;;;;;;22.48;4.93;;;20.50;88.60;;;;;;5006178;28;20208;-74
2021/07/16 08:17:48;;;;;;;23.17;4.63;;;20.60;88.50;;;;;;5009945;28;20604;-73
2021/07/16 08:20:15;;;;;;;21.73;4.43;;;20.60;88.30;;;;;;4990979;28;20208;-75
2021/07/16 08:22:43;;;;;;;23.95;5.35;;;20.60;88.10;;;;;;4992280;28;20945;-74
2021/07/16 08:25:11;;;;;;;24.02;5.25;;;20.70;87.90;;;;;;4998335;28;20518;-74
2021/07/16 08:27:39;;;;;;;25.80;5.15;;;20.70;87.90;;;;;;4998048;28;20203;-71
2021/07/16 08:30:07;;;;;;;23.77;4.88;;;20.70;87.90;;;;;;5007703;28;20220;-75
2021/07/16 08:32:36;;;;;;;21.27;4.95;;;20.80;87.80;;;;;;5009427;28;20232;-72
2021/07/16 08:35:04;;;;;;;22.02;4.72;;;20.80;87.50;;;;;;5010828;28;20209;-75
2021/07/16 08:37:31;;;;;;;24.80;4.80;;;20.80;87.20;;;;;;5010159;28;20204;-73
2021/07/16 08:39:58;;;;;;;23.15;4.70;;;20.80;86.80;;;;;;4996913;28;20208;-74
2021/07/16 08:42:26;;;;;;;22.73;4.88;;;20.80;86.60;;;;;;5011025;28;20306;-74
2021/07/16 08:44:54;;;;;;;21.73;5.50;;;20.80;86.30;;;;;;5005546;28;20295;-74
2021/07/16 08:47:21;;;;;;;21.70;4.80;;;20.80;86.10;;;;;;5012618;28;20213;-73
2021/07/16 08:49:49;;;;;;;26.42;5.15;;;20.80;86.30;;;;;;5010903;28;20240;-75
2021/07/16 08:52:17;;;;;;;21.25;4.70;;;20.80;86.50;;;;;;4990991;28;20212;-72
2021/07/16 08:54:47;;;;;;;32.97;5.78;;;20.80;86.80;;;;;;4994621;28;20212;-74
2021/07/16 08:57:15;;;;;;;18.67;4.43;;;20.80;87.10;;;;;;5001574;28;20270;-73
2021/07/16 08:59:42;;;;;;;28.95;5.15;;;20.90;87.20;;;;;;5013102;28;20207;-73
2021/07/16 09:02:10;;;;;;;27.50;5.90;;;20.90;87.30;;;;;;5015710;28;20596;-70
2021/07/16 09:04:39;;;;;;;20.05;4.90;;;20.90;87.30;;;;;;5013504;28;20243;-75
2021/07/16 09:07:08;;;;;;;32.17;5.00;;;20.90;87.40;;;;;;5015688;28;20236;-74
2021/07/16 09:09:37;;;;;;;24.88;5.25;;;20.90;87.40;;;;;;5012471;28;20253;-70
2021/07/16 09:12:08;;;;;;;27.52;4.97;;;21.00;87.60;;;;;;5013531;28;20279;-68
2021/07/16 09:14:35;;;;;;;24.17;5.53;;;21.00;87.40;;;;;;5013818;28;20277;-68
2021/07/16 09:17:04;;;;;;;24.63;5.20;;;21.00;87.50;;;;;;5015850;28;20204;-69
2021/07/16 09:19:36;;;;;;;21.77;5.43;;;21.00;87.20;;;;;;5012754;28;20676;-67
2021/07/16 09:22:11;;;;;;;28.10;5.32;;;21.00;87.10;;;;;;5016087;28;20208;-69
2021/07/16 09:24:39;;;;;;;28.00;5.15;;;21.10;87.20;;;;;;5012531;28;20202;-69
2021/07/16 09:27:31;;;;;;;23.35;4.78;;;21.10;87.10;;;;;;5014707;28;20209;-69
2021/07/16 09:30:11;;;;;;;25.15;5.80;;;21.10;86.80;;;;;;4994605;28;20219;-68
2021/07/16 09:32:40;;;;;;;28.00;6.07;;;21.10;86.90;;;;;;5015269;28;20243;-68
2021/07/16 09:35:09;;;;;;;21.10;5.43;;;21.10;86.80;;;;;;5012818;28;20208;-68
2021/07/16 09:37:52;;;;;;;21.98;6.13;;;21.10;86.80;;;;;;5014125;28;20547;-69
2021/07/16 09:40:24;;;;;;;25.13;4.97;;;21.10;86.60;;;;;;5012410;28;20696;-69
2021/07/16 09:43:01;;;;;;;24.42;5.78;;;21.10;86.40;;;;;;5012680;28;20213;-68
2021/07/16 09:45:28;;;;;;;27.35;5.68;;;21.20;86.40;;;;;;5011678;28;20203;-68
2021/07/16 09:47:56;;;;;;;24.65;5.75;;;21.20;86.60;;;;;;5016563;28;20945;-70
2021/07/16 09:50:26;;;;;;;20.27;5.43;;;21.20;86.70;;;;;;5010801;28;20255;-68
2021/07/16 09:53:14;;;;;;;27.20;5.70;;;21.30;86.70;;;;;;5008849;28;20223;-74
2021/07/16 09:55:42;;;;;;;26.73;5.60;;;21.40;86.70;;;;;;5013522;28;20212;-73
2021/07/16 09:58:24;;;;;;;22.42;5.05;;;21.40;86.60;;;;;;5011314;28;20208;-74
2021/07/16 10:00:52;;;;;;;32.22;5.88;;;21.50;86.50;;;;;;5010887;28;20196;-74
2021/07/16 10:03:20;;;;;;;28.85;6.90;;;21.50;86.30;;;;;;5013550;28;20286;-75
2021/07/16 10:05:48;;;;;;;30.55;6.90;;;21.60;86.30;;;;;;5015256;28;20263;-73
2021/07/16 10:08:18;;;;;;;30.67;6.15;;;21.60;86.30;;;;;;5013491;28;20208;-71
2021/07/16 10:10:47;;;;;;;26.13;6.22;;;21.60;86.30;;;;;;5012478;28;20208;-73
2021/07/16 10:13:15;;;;;;;29.65;7.00;;;21.60;86.40;;;;;;5000294;28;20231;-75
2021/07/16 10:15:43;;;;;;;26.92;6.45;;;21.60;86.70;;;;;;5014199;28;20221;-73
2021/07/16 10:18:11;;;;;;;25.55;5.57;;;21.70;86.80;;;;;;5010522;28;20283;-73
2021/07/16 10:20:39;;;;;;;27.80;5.50;;;21.70;86.60;;;;;;4999308;28;20186;-73
2021/07/16 10:23:06;;;;;;;22.58;6.13;;;21.80;86.40;;;;;;5016063;28;20201;-72
2021/07/16 10:25:35;;;;;;;;;;;21.80;86.00;;;;;;5011486;28;20254;-71
2021/07/16 10:28:01;;;;;;;;;;;21.80;86.00;;;;;;4998006;28;20357;-72
2021/07/16 10:30:32;;;;;;;;;;;21.80;86.20;;;;;;5012108;28;19960;-72
2021/07/16 10:33:00;;;;;;;;;;;21.90;86.00;;;;;;4994544;28;20528;-69
2021/07/16 10:35:29;;;;;;;25.95;5.53;;;21.90;85.70;;;;;;5013943;28;20067;-73
2021/07/16 10:37:57;;;;;;;27.90;6.22;;;21.90;85.40;;;;;;4995428;28;20205;-74
2021/07/16 10:40:41;;;;;;;20.50;5.80;;;22.00;85.30;;;;;;5010716;28;20606;-73
2021/07/16 10:43:09;;;;;;;24.10;5.45;;;22.00;85.10;;;;;;5012335;28;20201;-74
2021/07/16 10:45:38;;;;;;;24.75;6.15;;;22.00;85.00;;;;;;5011556;28;20260;-76
2021/07/16 10:48:13;;;;;;;26.45;6.35;;;22.00;84.80;;;;;;5012713;28;20270;-73
2021/07/16 10:50:42;;;;;;;30.40;6.38;;;22.10;84.70;;;;;;5010321;28;20196;-75
2021/07/16 10:53:14;;;;;;;;;;;22.10;84.80;;;;;;4992902;28;20224;-73
2021/07/16 10:56:11;;;;;;;24.92;5.97;;;22.10;84.80;;;;;;5012480;28;20394;-71
2021/07/16 10:58:49;;;;;;;28.75;5.95;;;22.10;84.90;;;;;;5014989;28;20214;-75
2021/07/16 11:01:33;;;;;;;26.40;6.03;;;22.10;85.00;;;;;;5013322;28;20212;-75
2021/07/16 11:04:02;;;;;;;30.55;6.45;;;22.10;85.20;;;;;;5012149;28;20541;-72
2021/07/16 11:06:50;;;;;;;36.03;6.50;;;22.20;85.20;;;;;;5011764;28;20208;-76
2021/07/16 11:09:39;;;;;;;29.58;6.63;;;22.30;85.20;;;;;;5010574;28;20661;-71
2021/07/16 11:12:27;;;;;;;32.03;6.57;;;22.40;85.10;;;;;;5012092;28;20231;-74
2021/07/16 11:14:55;;;;;;;29.15;6.07;;;22.40;84.80;;;;;;5009053;28;20587;-69
2021/07/16 11:17:33;;;;;;;25.52;5.88;;;22.50;84.60;;;;;;5013275;28;20201;-67
2021/07/16 11:20:19;;;;;;;34.10;6.05;;;22.50;84.30;;;;;;4994019;28;20205;-66
2021/07/16 11:22:57;;;;;;;28.88;6.32;;;22.50;84.40;;;;;;5013294;28;20195;-69
2021/07/16 11:25:24;;;;;;;34.97;6.22;;;22.50;84.30;;;;;;5010303;28;20200;-67
2021/07/16 11:27:52;;;;;;;27.60;6.18;;;22.60;84.20;;;;;;5011132;28;20251;-68
2021/07/16 11:30:19;;;;;;;23.45;5.25;;;22.60;83.90;;;;;;5010205;28;20271;-69
2021/07/16 11:32:46;;;;;;;23.25;5.65;;;22.70;83.70;;;;;;5009318;28;20290;-69
2021/07/16 11:35:13;;;;;;;30.73;6.07;;;22.70;83.60;;;;;;5011455;28;20692;-68
2021/07/16 11:37:43;;;;;;;25.27;5.95;;;22.80;83.70;;;;;;5011542;28;20703;-68
2021/07/16 11:40:12;;;;;;;28.05;5.90;;;22.90;84.00;;;;;;5003570;28;20209;-69
2021/07/16 11:42:40;;;;;;;26.40;5.60;;;23.00;83.90;;;;;;5013404;28;20259;-70
2021/07/16 11:45:13;;;;;;;27.55;5.57;;;23.10;83.50;;;;;;5011182;28;20255;-70
2021/07/16 11:47:40;;;;;;;26.80;5.95;;;23.10;83.10;;;;;;5011357;28;20573;-69
2021/07/16 11:50:09;;;;;;;25.83;5.93;;;23.10;82.70;;;;;;5011170;28;20266;-70
2021/07/16 11:52:38;;;;;;;26.63;6.03;;;23.20;82.70;;;;;;5011447;28;20205;-69
2021/07/16 11:55:10;;;;;;;22.85;5.53;;;23.30;82.70;;;;;;5008061;28;20626;-69
2021/07/16 11:57:53;;;;;;;26.55;5.75;;;23.40;82.70;;;;;;4991670;28;20247;-70
2021/07/16 12:00:24;;;;;;;25.63;6.35;;;23.50;82.30;;;;;;5010108;28;20243;-69
2021/07/16 12:02:51;;;;;;;24.95;5.97;;;23.60;81.70;;;;;;5012802;28;20205;-68
2021/07/16 12:05:21;;;;;;;22.80;5.88;;;23.70;81.50;;;;;;5009879;28;20219;-68
2021/07/16 12:07:48;;;;;;;26.50;6.40;;;23.80;81.10;;;;;;5012817;28;20590;-69
2021/07/16 12:10:18;;;;;;;25.80;6.15;;;23.80;80.40;;;;;;5008611;28;20235;-73
2021/07/16 12:12:45;;;;;;;23.92;6.00;;;23.90;80.20;;;;;;5009764;28;20204;-72
2021/07/16 12:15:17;;;;;;;25.35;5.85;;;24.00;80.10;;;;;;5012987;28;20223;-73
2021/07/16 12:17:52;;;;;;;32.72;6.32;;;24.10;79.70;;;;;;5010055;28;20208;-70
2021/07/16 12:20:21;;;;;;;29.17;5.95;;;24.10;79.30;;;;;;5010688;28;20253;-72
2021/07/16 12:22:48;;;;;;;27.17;6.50;;;24.20;79.40;;;;;;5011879;28;20205;-71
2021/07/16 12:25:16;;;;;;;28.05;5.30;;;24.30;78.90;;;;;;5006365;28;20200;-71
2021/07/16 12:27:43;;;;;;;31.25;6.25;;;24.40;78.50;;;;;;4994910;28;20218;-74
2021/07/16 12:30:12;;;;;;;25.60;6.68;;;24.50;78.30;;;;;;5010545;28;20209;-75
2021/07/16 12:32:41;;;;;;;23.83;5.50;;;24.50;78.10;;;;;;5009798;28;20287;-72
2021/07/16 12:35:26;;;;;;;30.30;5.85;;;24.60;78.60;;;;;;5010219;28;20235;-75
2021/07/16 12:37:54;;;;;;;24.45;5.90;;;24.70;77.40;;;;;;5008667;28;20282;-74
2021/07/16 12:40:23;;;;;;;18.52;5.00;;;24.80;77.00;;;;;;5006937;28;20205;-75
2021/07/16 12:43:10;;;;;;;29.08;5.82;;;24.90;76.70;;;;;;5012521;28;20212;-74
2021/07/16 12:45:40;;;;;;;28.98;5.72;;;25.00;76.10;;;;;;5009237;28;20586;-75